Time;durP1;ratioP1;P1;durP2;ratioP2;P2;SDS_P1;SDS_P2;PMS_P1;PMS_P2;Temp;Humidity;BMP_temperature;BMP_pressure;BME280_temperature;BME280_humidity;BME280_pressure;Samples;Min_cycle;Max_cycle;Signal;HPM_P1;HPM_P2
2023/09/22 00:01:21;;;;;;;14.40;13.10;;;17.50;99.90;;;;;;5055733;28;20500;-72
2023/09/22 00:03:49;;;;;;;13.37;12.27;;;17.50;99.90;;;;;;5054389;28;20436;-72
2023/09/22 00:06:19;;;;;;;13.80;12.40;;;17.50;99.90;;;;;;5055934;28;20437;-72
2023/09/22 00:08:47;;;;;;;12.30;11.30;;;17.40;99.90;;;;;;5055911;28;20495;-72
2023/09/22 00:11:15;;;;;;;13.63;12.47;;;17.40;99.90;;;;;;5054278;28;20525;-72
2023/09/22 00:13:44;;;;;;;13.23;12.10;;;17.40;99.90;;;;;;5054369;28;20466;-72
2023/09/22 00:16:12;;;;;;;13.20;12.00;;;17.40;99.90;;;;;;5056191;28;20434;-72
2023/09/22 00:18:42;;;;;;;11.93;10.83;;;17.40;99.90;;;;;;5054892;28;20438;-72
2023/09/22 00:21:10;;;;;;;12.50;11.40;;;17.30;99.90;;;;;;5056908;28;20473;-72
2023/09/22 00:23:38;;;;;;;11.27;10.23;;;17.30;99.90;;;;;;5059202;28;20405;-72
2023/09/22 00:26:06;;;;;;;10.73;9.83;;;17.30;99.90;;;;;;5057054;28;20438;-72
2023/09/22 00:28:34;;;;;;;12.57;11.37;;;17.20;99.90;;;;;;5054761;28;20415;-72
2023/09/22 00:31:02;;;;;;;10.60;9.70;;;17.20;99.90;;;;;;5054396;28;20467;-72
2023/09/22 00:33:31;;;;;;;12.23;10.33;;;17.20;99.90;;;;;;5054205;28;20452;-72
2023/09/22 00:36:03;;;;;;;11.20;10.20;;;17.20;99.90;;;;;;5054134;28;20442;-72
2023/09/22 00:38:31;;;;;;;11.20;10.20;;;17.20;99.90;;;;;;5054405;28;20908;-72
2023/09/22 00:40:59;;;;;;;11.43;10.03;;;17.20;99.90;;;;;;5054258;28;20539;-72
2023/09/22 00:43:28;;;;;;;11.33;10.33;;;17.20;99.90;;;;;;5054228;28;20490;-72
2023/09/22 00:45:56;;;;;;;11.70;10.70;;;17.10;99.90;;;;;;5053963;28;20485;-72
2023/09/22 00:48:29;;;;;;;9.90;9.00;;;17.10;99.90;;;;;;5055214;28;21007;-72
2023/09/22 00:50:58;;;;;;;10.47;9.47;;;17.10;99.90;;;;;;5055353;28;20429;-72
2023/09/22 00:53:30;;;;;;;10.43;9.47;;;17.10;99.90;;;;;;5055151;28;20412;-72
2023/09/22 00:55:59;;;;;;;11.00;9.90;;;17.00;99.90;;;;;;5053445;28;20452;-72
2023/09/22 00:58:27;;;;;;;11.03;10.00;;;17.00;99.90;;;;;;5053797;28;20863;-72
2023/09/22 01:00:55;;;;;;;10.37;9.40;;;17.00;99.90;;;;;;5053720;28;20462;-72
2023/09/22 01:03:23;;;;;;;10.70;9.70;;;17.00;99.90;;;;;;5053544;28;20438;-73
2023/09/22 01:05:52;;;;;;;11.07;10.07;;;17.00;99.90;;;;;;5055042;28;20409;-72
2023/09/22 01:08:21;;;;;;;9.70;8.80;;;17.00;99.90;;;;;;5054620;28;20457;-72
2023/09/22 01:10:51;;;;;;;10.27;9.27;;;17.00;99.90;;;;;;5055092;28;20469;-72
2023/09/22 01:13:19;;;;;;;10.63;9.63;;;17.00;99.90;;;;;;5055078;28;20499;-72
2023/09/22 01:15:47;;;;;;;10.00;9.10;;;17.00;99.90;;;;;;5055067;28;20953;-72
2023/09/22 01:18:16;;;;;;;11.90;9.70;;;17.00;99.90;;;;;;5059289;28;20493;-72
2023/09/22 01:20:45;;;;;;;9.90;9.00;;;17.00;99.90;;;;;;5056512;28;20920;-72
2023/09/22 01:23:15;;;;;;;10.60;9.60;;;16.90;99.90;;;;;;5056120;28;20477;-72
2023/09/22 01:25:45;;;;;;;9.43;8.53;;;16.90;99.90;;;;;;5058787;28;20864;-72
2023/09/22 01:28:14;;;;;;;10.47;9.40;;;16.90;99.90;;;;;;5053761;28;20428;-72
2023/09/22 01:30:42;;;;;;;9.90;8.90;;;16.90;99.90;;;;;;5054475;28;20417;-72
2023/09/22 01:33:11;;;;;;;10.40;9.40;;;16.90;99.90;;;;;;5053978;28;20496;-72
2023/09/22 01:35:39;;;;;;;11.30;9.90;;;16.90;99.90;;;;;;5054273;28;20924;-72
2023/09/22 01:38:12;;;;;;;10.27;9.27;;;16.90;99.90;;;;;;5054380;28;20467;-72
2023/09/22 01:40:43;;;;;;;10.30;9.30;;;16.90;99.90;;;;;;5053548;28;20826;-72
2023/09/22 01:43:12;;;;;;;10.97;9.87;;;16.90;99.90;;;;;;5053539;28;20429;-73
2023/09/22 01:45:40;;;;;;;11.20;10.10;;;16.90;99.90;;;;;;5052901;28;20985;-72
2023/09/22 01:48:09;;;;;;;11.40;10.30;;;16.90;99.90;;;;;;5054563;28;20859;-72
2023/09/22 01:50:40;;;;;;;11.30;10.20;;;16.90;99.90;;;;;;5054189;28;20435;-72
2023/09/22 01:53:10;;;;;;;11.83;10.60;;;16.90;99.90;;;;;;5052777;28;20434;-72
2023/09/22 01:55:38;;;;;;;13.00;11.70;;;16.90;99.90;;;;;;5054218;28;20454;-72
2023/09/22 01:58:09;;;;;;;11.80;10.70;;;16.90;99.90;;;;;;5052569;28;20424;-72
2023/09/22 02:00:37;;;;;;;12.80;11.57;;;16.90;99.90;;;;;;5052756;28;20533;-72
2023/09/22 02:03:06;;;;;;;12.70;11.40;;;16.90;99.90;;;;;;5054335;28;20504;-72
2023/09/22 02:05:35;;;;;;;11.73;10.53;;;16.90;99.90;;;;;;5053898;28;20523;-72
2023/09/22 02:08:03;;;;;;;12.33;11.23;;;16.90;99.90;;;;;;5053136;28;20440;-72
2023/09/22 02:10:31;;;;;;;13.07;11.80;;;16.90;99.90;;;;;;5052656;28;20434;-72
2023/09/22 02:13:00;;;;;;;13.70;12.30;;;16.90;99.90;;;;;;5053786;28;20412;-72
2023/09/22 02:15:29;;;;;;;14.70;13.23;;;16.80;99.90;;;;;;5052772;28;20531;-72
2023/09/22 02:17:58;;;;;;;13.83;12.37;;;16.80;99.90;;;;;;5052244;28;20855;-72
2023/09/22 02:20:26;;;;;;;14.53;13.03;;;16.80;99.90;;;;;;5053849;28;20903;-72
2023/09/22 02:22:56;;;;;;;12.67;11.27;;;16.80;99.90;;;;;;5053220;28;20444;-72
2023/09/22 02:25:26;;;;;;;13.30;11.90;;;16.80;99.90;;;;;;5052251;28;20462;-72
2023/09/22 02:27:55;;;;;;;14.03;12.73;;;16.80;99.90;;;;;;5052668;28;20454;-72
2023/09/22 02:30:24;;;;;;;15.40;12.20;;;16.80;99.90;;;;;;5053665;28;20441;-72
2023/09/22 02:32:55;;;;;;;11.70;10.60;;;16.80;99.90;;;;;;5052268;28;20527;-72
2023/09/22 02:35:23;;;;;;;12.30;11.03;;;16.80;99.90;;;;;;5052020;28;20460;-72
2023/09/22 02:37:52;;;;;;;11.80;10.70;;;16.70;99.90;;;;;;5053601;28;20417;-72
2023/09/22 02:40:20;;;;;;;12.20;11.03;;;16.80;99.90;;;;;;5053226;28;20434;-72
2023/09/22 02:42:49;;;;;;;12.40;10.90;;;16.80;99.90;;;;;;5052012;28;20484;-72
2023/09/22 02:45:17;;;;;;;11.90;10.80;;;16.80;99.90;;;;;;5052972;28;20485;-72
2023/09/22 02:47:45;;;;;;;11.67;10.57;;;16.80;99.90;;;;;;5052142;28;20428;-72
2023/09/22 02:50:18;;;;;;;12.93;11.57;;;16.70;99.90;;;;;;5053525;28;20412;-72
2023/09/22 02:52:47;;;;;;;12.37;11.17;;;16.70;99.90;;;;;;5052166;28;20413;-72
2023/09/22 02:55:16;;;;;;;12.87;11.63;;;16.70;99.90;;;;;;5051976;28;20433;-72
2023/09/22 02:57:45;;;;;;;14.10;12.60;;;16.70;99.90;;;;;;5052421;28;20947;-72
2023/09/22 03:00:20;;;;;;;13.93;12.63;;;16.70;99.90;;;;;;5053233;28;20929;-72
2023/09/22 03:02:50;;;;;;;12.87;11.67;;;16.70;99.90;;;;;;5052012;28;20436;-72
2023/09/22 03:05:20;;;;;;;14.63;13.17;;;16.70;99.90;;;;;;5051922;28;20459;-72
2023/09/22 03:07:51;;;;;;;10.23;9.27;;;16.70;99.90;;;;;;5052420;28;20504;-72
2023/09/22 03:10:20;;;;;;;14.40;12.90;;;16.60;99.90;;;;;;5053143;28;20495;-72
2023/09/22 03:12:52;;;;;;;15.80;13.47;;;16.60;99.90;;;;;;5051953;28;20912;-72
2023/09/22 03:15:22;;;;;;;15.73;14.10;;;16.60;99.90;;;;;;5052040;28;20440;-72
2023/09/22 03:17:50;;;;;;;14.37;12.87;;;16.60;99.90;;;;;;5052117;28;20997;-73
2023/09/22 03:20:20;;;;;;;15.37;13.77;;;16.60;99.90;;;;;;5055314;28;20961;-72
2023/09/22 03:22:49;;;;;;;14.97;13.43;;;16.60;99.90;;;;;;5055476;28;20437;-72
2023/09/22 03:25:18;;;;;;;15.60;14.07;;;16.60;99.90;;;;;;5056567;28;21029;-72
2023/09/22 03:27:46;;;;;;;16.70;14.17;;;16.50;99.90;;;;;;5059653;28;20430;-73
2023/09/22 03:30:18;;;;;;;16.20;13.93;;;16.60;99.90;;;;;;5057223;28;20446;-72
2023/09/22 03:32:47;;;;;;;14.60;13.13;;;16.50;99.90;;;;;;5055895;28;20909;-73
2023/09/22 03:35:16;;;;;;;15.40;13.90;;;16.50;99.90;;;;;;5055554;28;20493;-72
2023/09/22 03:37:48;;;;;;;15.80;14.20;;;16.50;99.90;;;;;;5057202;28;20948;-72
2023/09/22 03:40:22;;;;;;;16.57;14.97;;;16.50;99.90;;;;;;5055532;28;20830;-72
2023/09/22 03:42:51;;;;;;;16.23;13.83;;;16.50;99.90;;;;;;5055102;28;20530;-72
2023/09/22 03:45:19;;;;;;;14.70;13.20;;;16.50;99.90;;;;;;5055099;28;20469;-73
2023/09/22 03:47:48;;;;;;;14.50;12.97;;;16.40;99.90;;;;;;5054949;28;20529;-73
2023/09/22 03:50:17;;;;;;;15.33;13.93;;;16.40;99.90;;;;;;5055135;28;20482;-72
2023/09/22 03:52:48;;;;;;;15.80;14.10;;;16.40;99.90;;;;;;5055276;28;20778;-73
2023/09/22 03:55:16;;;;;;;15.10;13.70;;;16.40;99.90;;;;;;5055234;28;20781;-73
2023/09/22 03:57:44;;;;;;;15.70;13.97;;;16.40;99.90;;;;;;5055243;28;20453;-73
2023/09/22 04:00:18;;;;;;;15.10;13.60;;;16.40;99.90;;;;;;5055350;28;20416;-73
2023/09/22 04:02:47;;;;;;;16.60;14.90;;;16.40;99.90;;;;;;5055193;28;20505;-73
2023/09/22 04:05:16;;;;;;;15.80;14.37;;;16.40;99.90;;;;;;5054934;28;20464;-73
2023/09/22 04:07:46;;;;;;;16.20;14.60;;;16.30;99.90;;;;;;5054749;28;20479;-73
2023/09/22 04:10:15;;;;;;;15.80;14.40;;;16.30;99.90;;;;;;5054801;28;20417;-73
2023/09/22 04:12:43;;;;;;;16.27;14.77;;;16.30;99.90;;;;;;5056705;28;20405;-73
2023/09/22 04:15:12;;;;;;;15.60;14.20;;;16.30;99.90;;;;;;5055026;28;20437;-72
2023/09/22 04:17:40;;;;;;;16.20;14.30;;;16.30;99.90;;;;;;5056398;28;20447;-72
2023/09/22 04:20:12;;;;;;;15.97;14.37;;;16.30;99.90;;;;;;5054745;28;20417;-73
2023/09/22 04:22:43;;;;;;;18.47;14.73;;;16.30;99.90;;;;;;5056358;28;20520;-73
2023/09/22 04:25:18;;;;;;;16.20;14.70;;;16.30;99.90;;;;;;5054651;28;20443;-72
2023/09/22 04:27:53;;;;;;;15.47;13.97;;;16.30;99.90;;;;;;5054578;28;20446;-73
2023/09/22 04:30:24;;;;;;;18.30;15.00;;;16.30;99.90;;;;;;5054852;28;20393;-72
2023/09/22 04:32:54;;;;;;;15.00;13.50;;;16.30;99.90;;;;;;5056275;28;20459;-73
2023/09/22 04:35:23;;;;;;;17.60;15.70;;;16.30;99.90;;;;;;5056031;28;20447;-72
2023/09/22 04:37:51;;;;;;;16.13;14.63;;;16.30;99.90;;;;;;5055396;28;20491;-72
2023/09/22 04:40:29;;;;;;;16.73;15.20;;;16.30;99.90;;;;;;5054282;28;20496;-72
2023/09/22 04:42:57;;;;;;;15.63;14.20;;;16.30;99.90;;;;;;5054394;28;20452;-73
2023/09/22 04:45:26;;;;;;;15.03;13.53;;;16.20;99.90;;;;;;5055322;28;20473;-73
2023/09/22 04:47:55;;;;;;;16.87;15.17;;;16.20;99.90;;;;;;5055364;28;20442;-73
2023/09/22 04:50:23;;;;;;;15.27;13.87;;;16.20;99.90;;;;;;5054307;28;20434;-73
2023/09/22 04:52:52;;;;;;;16.30;14.63;;;16.20;99.90;;;;;;5054270;28;20811;-73
2023/09/22 04:55:22;;;;;;;15.93;14.27;;;16.20;99.90;;;;;;5054143;28;20483;-73
2023/09/22 04:57:50;;;;;;;15.80;14.20;;;16.20;99.90;;;;;;5055593;28;20466;-73
2023/09/22 05:00:22;;;;;;;15.90;14.40;;;16.20;99.90;;;;;;5055322;28;20434;-73
2023/09/22 05:02:51;;;;;;;14.93;13.53;;;16.20;99.90;;;;;;5053777;28;21065;-73
2023/09/22 05:05:22;;;;;;;14.20;12.70;;;16.20;99.90;;;;;;5055015;28;20472;-72
2023/09/22 05:07:51;;;;;;;15.57;14.07;;;16.20;99.90;;;;;;5055382;28;20419;-73
2023/09/22 05:10:20;;;;;;;14.90;13.50;;;16.20;99.90;;;;;;5053722;28;20504;-72
2023/09/22 05:12:51;;;;;;;17.00;15.13;;;16.20;99.90;;;;;;5054983;28;20416;-72
2023/09/22 05:15:20;;;;;;;15.40;14.00;;;16.10;99.90;;;;;;5055256;28;20797;-73
2023/09/22 05:17:48;;;;;;;16.60;15.20;;;16.10;99.90;;;;;;5053463;28;20882;-72
2023/09/22 05:20:19;;;;;;;16.70;14.50;;;16.10;99.90;;;;;;5054550;28;20811;-72
2023/09/22 05:22:47;;;;;;;15.17;13.87;;;16.10;99.90;;;;;;5054879;28;20522;-72
2023/09/22 05:25:16;;;;;;;16.47;14.87;;;16.10;99.90;;;;;;5054741;28;20869;-72
2023/09/22 05:27:45;;;;;;;15.93;14.23;;;16.10;99.90;;;;;;5054944;28;20927;-72
2023/09/22 05:30:15;;;;;;;15.47;14.03;;;16.10;99.90;;;;;;5054103;28;20977;-72
2023/09/22 05:32:43;;;;;;;15.20;13.60;;;16.10;99.90;;;;;;5055688;28;20872;-72
2023/09/22 05:35:12;;;;;;;15.20;13.83;;;16.10;99.90;;;;;;5055133;28;21012;-72
2023/09/22 05:37:40;;;;;;;14.07;12.80;;;16.10;99.90;;;;;;5053795;28;20916;-72
2023/09/22 05:40:12;;;;;;;14.43;13.13;;;16.10;99.90;;;;;;5055140;28;20445;-72
2023/09/22 05:42:42;;;;;;;14.50;13.03;;;16.10;99.90;;;;;;5053224;28;20814;-72
2023/09/22 05:45:11;;;;;;;14.23;12.93;;;16.10;99.90;;;;;;5054384;28;20487;-72
2023/09/22 05:47:41;;;;;;;15.60;13.93;;;16.00;99.90;;;;;;5054961;28;20420;-72
2023/09/22 05:50:12;;;;;;;13.70;12.40;;;16.00;99.90;;;;;;5055337;28;20488;-72
2023/09/22 05:52:41;;;;;;;13.50;12.30;;;16.00;99.90;;;;;;5054420;28;20949;-73
2023/09/22 05:55:12;;;;;;;13.17;11.97;;;16.00;99.90;;;;;;5054232;28;20470;-72
2023/09/22 05:57:41;;;;;;;14.53;13.13;;;16.00;99.90;;;;;;5055502;28;20941;-72
2023/09/22 06:00:15;;;;;;;14.10;12.70;;;16.00;99.90;;;;;;5054669;28;21027;-72
2023/09/22 06:02:49;;;;;;;13.90;12.60;;;15.90;99.90;;;;;;5055787;28;20461;-73
2023/09/22 06:05:19;;;;;;;14.53;13.20;;;15.90;99.90;;;;;;5054899;28;20481;-72
2023/09/22 06:07:47;;;;;;;16.40;14.60;;;15.90;99.90;;;;;;5054461;28;20413;-72
2023/09/22 06:10:16;;;;;;;13.17;11.90;;;15.90;99.90;;;;;;5055251;28;20442;-72
2023/09/22 06:12:44;;;;;;;14.80;13.40;;;15.90;99.90;;;;;;5054984;28;20850;-72
2023/09/22 06:15:13;;;;;;;14.07;12.67;;;15.90;99.90;;;;;;5055071;28;20427;-72
2023/09/22 06:17:41;;;;;;;14.80;13.37;;;15.90;99.90;;;;;;5055055;28;20438;-72
2023/09/22 06:20:15;;;;;;;14.50;13.00;;;15.90;99.90;;;;;;5054961;28;20525;-72
2023/09/22 06:22:45;;;;;;;13.23;11.93;;;16.00;99.90;;;;;;5054967;28;20432;-72
2023/09/22 06:25:14;;;;;;;14.37;12.90;;;16.00;99.90;;;;;;5054611;28;20565;-72
2023/09/22 06:27:43;;;;;;;13.63;12.23;;;16.00;99.90;;;;;;5060721;28;20488;-72
2023/09/22 06:30:12;;;;;;;13.77;12.47;;;16.00;99.90;;;;;;5056174;28;20488;-72
2023/09/22 06:32:42;;;;;;;15.27;12.63;;;16.00;99.90;;;;;;5055331;28;20430;-72
2023/09/22 06:35:12;;;;;;;13.83;12.43;;;16.00;99.90;;;;;;5054413;28;20462;-72
2023/09/22 06:37:41;;;;;;;12.30;11.07;;;16.00;99.90;;;;;;5055833;28;20455;-72
2023/09/22 06:40:12;;;;;;;12.90;11.60;;;15.90;99.90;;;;;;5055473;28;20420;-72
2023/09/22 06:42:44;;;;;;;12.27;11.07;;;16.00;99.90;;;;;;5055647;28;20507;-72
2023/09/22 06:45:14;;;;;;;13.30;11.90;;;15.90;99.90;;;;;;5055168;28;20493;-72
2023/09/22 06:47:43;;;;;;;11.77;10.40;;;15.90;99.90;;;;;;5054177;28;20512;-72
2023/09/22 06:50:13;;;;;;;11.30;10.20;;;15.90;99.90;;;;;;5055618;28;20420;-72
2023/09/22 06:52:42;;;;;;;13.07;11.73;;;15.90;99.90;;;;;;5054564;28;20452;-72
2023/09/22 06:55:13;;;;;;;11.80;10.70;;;15.90;99.90;;;;;;5059119;28;21055;-73
2023/09/22 06:57:42;;;;;;;11.90;10.80;;;15.90;99.90;;;;;;5059073;28;20521;-72
2023/09/22 07:00:18;;;;;;;12.23;10.90;;;15.90;99.90;;;;;;5058451;28;20457;-72
2023/09/22 07:02:48;;;;;;;12.83;11.53;;;15.90;99.90;;;;;;5058239;28;20404;-72
2023/09/22 07:05:19;;;;;;;12.83;10.70;;;15.90;99.90;;;;;;5058241;28;20840;-72
2023/09/22 07:07:49;;;;;;;12.40;11.20;;;15.90;99.90;;;;;;5059012;28;20414;-72
2023/09/22 07:10:19;;;;;;;11.13;10.03;;;15.90;99.90;;;;;;5059132;28;20482;-72
2023/09/22 07:12:48;;;;;;;12.07;10.30;;;15.90;99.90;;;;;;5060679;28;20499;-71
2023/09/22 07:15:16;;;;;;;12.10;10.80;;;15.90;99.90;;;;;;5058734;28;20960;-72
2023/09/22 07:17:44;;;;;;;12.70;11.20;;;15.90;99.90;;;;;;5058538;28;20438;-71
2023/09/22 07:20:14;;;;;;;13.20;10.80;;;15.90;99.90;;;;;;5058560;28;20518;-72
2023/09/22 07:22:44;;;;;;;11.67;10.47;;;15.90;99.90;;;;;;5057554;28;20434;-72
2023/09/22 07:25:14;;;;;;;11.87;10.67;;;15.90;99.90;;;;;;5059202;28;20473;-72
2023/09/22 07:27:46;;;;;;;11.47;10.30;;;15.90;99.90;;;;;;5056812;28;20433;-72
2023/09/22 07:30:16;;;;;;;12.70;11.33;;;15.80;99.90;;;;;;5059200;28;20948;-72
2023/09/22 07:32:45;;;;;;;12.93;11.63;;;15.80;99.90;;;;;;5058983;28;20437;-72
2023/09/22 07:35:14;;;;;;;13.67;10.37;;;15.80;99.90;;;;;;5058216;28;20454;-71
2023/09/22 07:37:45;;;;;;;12.63;10.20;;;15.80;99.90;;;;;;5059203;28;20438;-72
2023/09/22 07:40:14;;;;;;;13.70;10.10;;;15.80;99.90;;;;;;5058326;28;20759;-72
2023/09/22 07:42:44;;;;;;;12.63;9.80;;;15.80;99.90;;;;;;5057075;28;20457;-72
2023/09/22 07:45:13;;;;;;;10.63;9.53;;;15.80;99.90;;;;;;5057508;28;20465;-73
2023/09/22 07:47:41;;;;;;;11.27;9.63;;;15.80;99.90;;;;;;5056178;28;20516;-72
2023/09/22 07:50:11;;;;;;;10.90;9.77;;;15.80;99.90;;;;;;5058059;28;20513;-72
2023/09/22 07:52:42;;;;;;;10.07;9.17;;;15.80;99.90;;;;;;5058178;28;20457;-72
2023/09/22 07:55:15;;;;;;;10.53;8.93;;;15.80;99.90;;;;;;5057007;28;20473;-72
2023/09/22 07:57:47;;;;;;;10.80;9.40;;;15.80;99.90;;;;;;5057608;28;20415;-71
2023/09/22 08:00:18;;;;;;;10.33;9.33;;;15.80;99.90;;;;;;5056812;28;20442;-72
2023/09/22 08:02:46;;;;;;;10.70;8.40;;;15.80;99.90;;;;;;5056206;28;20542;-73
2023/09/22 08:05:15;;;;;;;9.80;8.33;;;15.80;99.90;;;;;;5056090;28;20487;-71
2023/09/22 08:07:43;;;;;;;11.53;8.20;;;15.80;99.90;;;;;;5056299;28;20447;-72
2023/09/22 08:10:13;;;;;;;8.90;7.67;;;15.90;99.90;;;;;;5056417;28;20420;-72
2023/09/22 08:12:42;;;;;;;8.43;7.50;;;15.90;99.90;;;;;;5057881;28;20500;-72
2023/09/22 08:15:11;;;;;;;9.03;7.60;;;15.90;99.90;;;;;;5057883;28;20473;-72
2023/09/22 08:17:41;;;;;;;9.30;7.93;;;15.90;99.90;;;;;;5056021;28;20481;-72
2023/09/22 08:20:12;;;;;;;10.00;8.27;;;15.90;99.90;;;;;;5057060;28;20537;-72
2023/09/22 08:22:41;;;;;;;10.03;7.50;;;15.90;99.90;;;;;;5058041;28;20421;-72
2023/09/22 08:25:10;;;;;;;10.03;7.90;;;15.90;99.90;;;;;;5057356;28;20515;-72
2023/09/22 08:27:40;;;;;;;8.70;7.83;;;16.00;99.90;;;;;;5057328;28;20409;-72
2023/09/22 08:30:11;;;;;;;9.33;7.63;;;16.10;99.90;;;;;;5057895;28;20459;-72
2023/09/22 08:32:41;;;;;;;8.73;6.90;;;16.20;99.90;;;;;;5057031;28;20419;-72
2023/09/22 08:35:11;;;;;;;8.80;7.70;;;16.20;99.90;;;;;;5057061;28;20501;-72
2023/09/22 08:37:42;;;;;;;9.70;8.67;;;16.20;99.90;;;;;;5057579;28;20982;-72
2023/09/22 08:40:14;;;;;;;8.47;7.57;;;16.20;99.90;;;;;;5056157;28;20446;-71
2023/09/22 08:42:47;;;;;;;8.70;7.90;;;16.30;99.90;;;;;;5057750;28;20942;-72
2023/09/22 08:45:16;;;;;;;10.23;8.57;;;16.40;99.90;;;;;;5056316;28;20470;-71
2023/09/22 08:47:45;;;;;;;9.20;8.30;;;16.40;99.90;;;;;;5056773;28;20405;-72
2023/09/22 08:50:15;;;;;;;11.00;9.90;;;16.40;99.90;;;;;;5055630;28;20447;-72
2023/09/22 08:52:45;;;;;;;9.93;8.97;;;16.40;99.90;;;;;;5057868;28;20474;-71
2023/09/22 08:55:14;;;;;;;11.30;10.10;;;16.40;99.90;;;;;;5057555;28;20432;-73
2023/09/22 08:57:46;;;;;;;12.07;10.97;;;16.40;99.90;;;;;;5056431;28;20455;-72
2023/09/22 09:00:20;;;;;;;12.17;10.10;;;16.40;99.90;;;;;;5055804;28;20405;-72
2023/09/22 09:02:49;;;;;;;11.27;10.27;;;16.40;99.90;;;;;;5057166;28;20429;-72
2023/09/22 09:05:23;;;;;;;12.30;11.20;;;16.30;99.90;;;;;;5055829;28;20473;-72
2023/09/22 09:07:52;;;;;;;12.17;10.37;;;16.30;99.90;;;;;;5057839;28;20430;-73
2023/09/22 09:10:29;;;;;;;10.93;9.70;;;16.30;99.90;;;;;;5058999;28;20428;-73
2023/09/22 09:13:03;;;;;;;11.23;10.33;;;16.30;99.90;;;;;;5060200;28;20417;-73
2023/09/22 09:15:44;;;;;;;11.70;10.60;;;16.30;99.90;;;;;;5059806;28;20511;-73
2023/09/22 09:18:15;;;;;;;11.83;10.73;;;16.30;99.90;;;;;;5057768;28;20441;-73
2023/09/22 09:20:45;;;;;;;11.27;10.17;;;16.30;99.90;;;;;;5059714;28;20429;-73
2023/09/22 09:23:15;;;;;;;9.83;9.03;;;16.40;99.90;;;;;;5058620;28;20413;-73
2023/09/22 09:25:45;;;;;;;11.63;9.70;;;16.40;99.90;;;;;;5056554;28;20441;-73
2023/09/22 09:28:17;;;;;;;9.83;8.90;;;16.40;99.90;;;;;;5062038;28;20401;-73
2023/09/22 09:30:51;;;;;;;11.53;10.40;;;16.40;99.90;;;;;;5061785;28;20397;-73
2023/09/22 09:33:24;;;;;;;11.03;9.90;;;16.40;99.90;;;;;;5059436;28;20875;-73
2023/09/22 09:35:53;;;;;;;11.07;9.97;;;16.50;99.90;;;;;;5057787;28;20397;-73
2023/09/22 09:38:25;;;;;;;10.90;10.00;;;16.50;99.90;;;;;;5057360;28;20480;-73
2023/09/22 09:40:54;;;;;;;10.43;9.53;;;16.50;99.90;;;;;;5056798;28;20463;-73
2023/09/22 09:43:24;;;;;;;9.63;8.70;;;16.60;99.90;;;;;;5057100;28;20491;-73
2023/09/22 09:45:56;;;;;;;8.67;7.97;;;16.60;99.90;;;;;;5057525;28;20466;-72
2023/09/22 09:48:26;;;;;;;8.60;7.90;;;16.60;99.90;;;;;;5056747;28;20400;-72
2023/09/22 09:50:58;;;;;;;9.07;7.50;;;16.70;99.90;;;;;;5056635;28;20456;-72
2023/09/22 09:53:37;;;;;;;9.07;8.27;;;16.70;99.90;;;;;;5055988;28;20434;-73
2023/09/22 09:56:06;;;;;;;7.93;7.20;;;16.70;99.90;;;;;;5056925;28;20419;-73
2023/09/22 09:58:38;;;;;;;8.00;7.10;;;16.70;99.90;;;;;;5056370;28;20434;-72
2023/09/22 10:01:07;;;;;;;7.53;6.93;;;16.80;99.90;;;;;;5056351;28;20744;-73
2023/09/22 10:03:39;;;;;;;11.53;10.43;;;16.80;99.90;;;;;;5057271;28;20431;-73
2023/09/22 10:06:12;;;;;;;8.37;7.60;;;16.80;99.90;;;;;;5056462;28;20458;-73
2023/09/22 10:08:41;;;;;;;7.50;6.80;;;16.90;99.90;;;;;;5056970;28;20418;-73
2023/09/22 10:11:12;;;;;;;7.10;6.53;;;16.90;99.90;;;;;;5056259;28;20440;-73
2023/09/22 10:13:41;;;;;;;7.63;7.03;;;16.90;99.90;;;;;;5057245;28;20801;-73
2023/09/22 10:16:11;;;;;;;7.10;6.40;;;16.90;99.90;;;;;;5057317;28;20447;-72
2023/09/22 10:18:50;;;;;;;6.70;6.20;;;17.00;99.90;;;;;;5056971;28;20441;-73
2023/09/22 10:21:46;;;;;;;7.13;6.63;;;17.10;99.90;;;;;;5056746;28;20422;-73
2023/09/22 10:24:19;;;;;;;6.87;6.30;;;17.10;99.90;;;;;;5055610;28;20454;-73
2023/09/22 10:27:13;;;;;;;6.47;5.80;;;17.20;99.90;;;;;;5054380;28;20478;-73
2023/09/22 10:29:51;;;;;;;6.40;5.90;;;17.30;99.90;;;;;;5054430;28;20890;-73
2023/09/22 10:32:27;;;;;;;6.83;6.33;;;17.30;99.90;;;;;;5054995;28;20748;-73
2023/09/22 10:35:41;;;;;;;6.03;5.63;;;17.30;99.90;;;;;;5054490;28;20440;-73
2023/09/22 10:38:10;;;;;;;7.03;6.00;;;17.30;99.90;;;;;;5054131;28;20409;-73
2023/09/22 10:40:40;;;;;;;6.40;5.90;;;17.30;99.90;;;;;;5054450;28;20412;-73
2023/09/22 10:43:08;;;;;;;5.40;4.40;;;17.30;99.90;;;;;;5053657;28;20464;-73
2023/09/22 10:45:38;;;;;;;5.13;4.60;;;17.30;99.90;;;;;;5053222;28;20436;-73
2023/09/22 10:48:07;;;;;;;5.23;4.83;;;17.30;99.90;;;;;;5054783;28;20408;-73
2023/09/22 10:50:35;;;;;;;5.37;5.07;;;17.40;99.90;;;;;;5052727;28;20420;-73
2023/09/22 10:53:04;;;;;;;4.70;4.40;;;17.40;99.90;;;;;;5053131;28;20448;-73
2023/09/22 10:55:35;;;;;;;5.40;5.00;;;17.50;99.90;;;;;;5052635;28;20494;-73
2023/09/22 10:58:05;;;;;;;5.70;5.10;;;17.60;99.90;;;;;;5052280;28;20409;-73
2023/09/22 11:00:35;;;;;;;5.70;5.23;;;17.70;99.90;;;;;;5053755;28;20855;-73
2023/09/22 11:03:10;;;;;;;5.97;5.47;;;17.70;99.90;;;;;;5053839;28;20925;-73
2023/09/22 11:05:39;;;;;;;5.23;4.73;;;17.80;99.90;;;;;;5052138;28;20859;-73
2023/09/22 11:08:13;;;;;;;6.00;5.60;;;17.90;99.90;;;;;;5052751;28;20531;-73
2023/09/22 11:10:43;;;;;;;5.37;4.97;;;17.90;99.90;;;;;;5053646;28;20472;-74
2023/09/22 11:13:13;;;;;;;6.10;5.50;;;18.00;99.90;;;;;;5053603;28;20506;-74
2023/09/22 11:15:49;;;;;;;6.20;5.33;;;17.90;99.90;;;;;;5053322;28;20536;-73
2023/09/22 11:18:24;;;;;;;7.30;5.40;;;17.90;99.90;;;;;;5052237;28;20470;-73
2023/09/22 11:20:57;;;;;;;5.40;5.00;;;17.90;99.90;;;;;;5051868;28;20496;-74
2023/09/22 11:23:26;;;;;;;5.67;5.10;;;18.00;99.90;;;;;;5053071;28;20977;-74
2023/09/22 11:25:56;;;;;;;4.93;4.53;;;18.00;99.90;;;;;;5053080;28;20440;-73
2023/09/22 11:28:24;;;;;;;5.70;5.30;;;18.00;99.90;;;;;;5052959;28;20454;-74
2023/09/22 11:30:54;;;;;;;5.30;4.90;;;18.00;99.90;;;;;;5053147;28;20396;-73
2023/09/22 11:33:24;;;;;;;5.43;5.03;;;18.00;99.90;;;;;;5053261;28;20462;-74
2023/09/22 11:35:57;;;;;;;5.90;5.50;;;18.00;99.90;;;;;;5052955;28;20438;-74
2023/09/22 11:38:27;;;;;;;5.97;5.47;;;18.00;99.90;;;;;;5052718;28;20438;-74
2023/09/22 11:41:07;;;;;;;5.60;5.13;;;18.00;99.90;;;;;;5054600;28;20438;-74
2023/09/22 11:43:40;;;;;;;5.67;5.30;;;18.10;99.90;;;;;;5056735;28;20511;-74
2023/09/22 11:46:09;;;;;;;5.70;5.30;;;18.20;99.90;;;;;;5056976;28;20423;-73
2023/09/22 11:48:59;;;;;;;6.23;5.73;;;18.20;99.90;;;;;;5057013;28;20526;-74
2023/09/22 11:51:47;;;;;;;5.47;5.07;;;18.40;99.90;;;;;;5055666;28;20425;-74
2023/09/22 11:54:16;;;;;;;5.10;4.80;;;18.50;99.90;;;;;;5057157;28;21042;-74
2023/09/22 11:56:46;;;;;;;4.80;4.40;;;18.60;99.90;;;;;;5056755;28;20419;-74
2023/09/22 11:59:17;;;;;;;4.70;4.10;;;18.70;99.90;;;;;;5056335;28;20480;-74
2023/09/22 12:01:47;;;;;;;4.37;4.07;;;18.80;99.90;;;;;;5057535;28;20426;-73
2023/09/22 12:04:18;;;;;;;3.77;3.50;;;18.90;99.90;;;;;;5056450;28;20964;-74
2023/09/22 12:06:48;;;;;;;4.67;4.27;;;18.90;99.90;;;;;;5056559;28;20968;-74
2023/09/22 12:09:18;;;;;;;4.43;4.13;;;18.90;99.90;;;;;;5056521;28;20999;-74
2023/09/22 12:11:47;;;;;;;4.40;4.00;;;19.00;99.90;;;;;;5055309;28;20442;-74
2023/09/22 12:14:16;;;;;;;3.83;3.53;;;18.90;99.90;;;;;;5055163;28;20477;-74
2023/09/22 12:16:45;;;;;;;4.40;4.10;;;18.90;99.90;;;;;;5055537;28;20508;-74
2023/09/22 12:19:14;;;;;;;4.10;3.80;;;18.90;99.90;;;;;;5056208;28;20477;-74
2023/09/22 12:21:44;;;;;;;4.90;3.60;;;18.90;99.90;;;;;;5056826;28;20549;-74
2023/09/22 12:24:12;;;;;;;4.53;4.13;;;18.90;99.90;;;;;;5055038;28;20496;-73
2023/09/22 12:26:40;;;;;;;4.17;3.83;;;18.90;99.90;;;;;;5055873;28;20438;-74
2023/09/22 12:29:08;;;;;;;4.43;4.03;;;19.00;99.90;;;;;;5056243;28;21023;-74
2023/09/22 12:31:37;;;;;;;3.97;3.63;;;19.00;99.90;;;;;;5062337;28;20438;-74
2023/09/22 12:34:06;;;;;;;4.57;4.27;;;19.00;99.90;;;;;;5058660;28;20457;-73
2023/09/22 12:36:34;;;;;;;4.20;3.90;;;18.90;99.90;;;;;;5057166;28;20536;-73
2023/09/22 12:39:03;;;;;;;4.10;3.80;;;18.90;99.90;;;;;;5056459;28;20434;-74
2023/09/22 12:41:32;;;;;;;3.60;3.40;;;18.90;99.90;;;;;;5055822;28;20449;-74
2023/09/22 12:44:01;;;;;;;4.73;4.33;;;18.90;99.90;;;;;;5055811;28;20465;-74
2023/09/22 12:46:29;;;;;;;4.70;4.17;;;19.00;99.90;;;;;;5055664;28;20470;-74
2023/09/22 12:48:58;;;;;;;5.53;4.20;;;19.00;99.90;;;;;;5054322;28;20996;-74